createdAt,value
2019-05-20T00:00:46.386Z,19.40
2019-05-20T00:03:16.595Z,18.60
2019-05-20T00:05:46.774Z,20.80
2019-05-20T00:08:16.588Z,21.40
2019-05-20T00:10:46.395Z,21.00
2019-05-20T00:13:18.376Z,21.60
2019-05-20T00:15:50.225Z,17.60
2019-05-20T00:18:19.660Z,16.40
2019-05-20T00:20:49.412Z,20.20
2019-05-20T00:23:19.245Z,22.40
2019-05-20T00:25:48.961Z,21.00
2019-05-20T00:28:19.891Z,20.00
2019-05-20T00:30:50.745Z,23.80
2019-05-20T00:33:20.542Z,20.20
2019-05-20T00:35:51.142Z,22.60
2019-05-20T00:38:21.123Z,14.80
2019-05-20T00:40:52.831Z,19.40
2019-05-20T00:43:22.351Z,20.20
2019-05-20T00:45:52.295Z,18.40
2019-05-20T00:48:23.819Z,21.20
2019-05-20T00:50:54.142Z,20.20
2019-05-20T00:53:23.749Z,15.00
2019-05-20T00:55:53.753Z,24.60
2019-05-20T00:58:24.135Z,21.00
2019-05-20T01:00:55.342Z,18.40
2019-05-20T01:03:24.891Z,19.20
2019-05-20T01:05:54.432Z,20.60
2019-05-20T01:08:24.676Z,23.60
2019-05-20T01:10:54.320Z,15.80
2019-05-20T01:13:23.901Z,24.00
2019-05-20T01:15:54.646Z,21.00
2019-05-20T01:18:26.048Z,23.60
2019-05-20T01:20:55.757Z,22.40
2019-05-20T01:23:25.877Z,24.20
2019-05-20T01:25:55.814Z,21.00
2019-05-20T01:28:25.506Z,21.40
2019-05-20T01:30:56.233Z,20.60
2019-05-20T01:33:26.767Z,21.80
2019-05-20T01:35:57.066Z,21.00
2019-05-20T01:38:26.566Z,18.80
2019-05-20T01:40:56.190Z,20.20
2019-05-20T01:43:26.403Z,21.20
2019-05-20T01:45:57.156Z,20.40
2019-05-20T01:48:26.754Z,25.20
2019-05-20T01:50:56.371Z,22.80
2019-05-20T01:53:26.219Z,28.00
2019-05-20T01:55:55.733Z,29.20
2019-05-20T01:58:26.211Z,24.40
2019-05-20T02:00:59.931Z,18.00
2019-05-20T02:03:32.154Z,25.40
2019-05-20T02:06:01.276Z,26.60
2019-05-20T02:08:30.777Z,28.80
2019-05-20T02:11:00.412Z,25.20
2019-05-20T02:13:48.870Z,24.80
2019-05-20T02:16:19.655Z,28.00
2019-05-20T02:18:49.284Z,29.00
2019-05-20T02:21:18.881Z,28.60
2019-05-20T02:23:48.520Z,24.80
2019-05-20T02:26:18.229Z,29.00
2019-05-20T02:28:47.869Z,30.00
2019-05-20T02:31:18.548Z,30.00
2019-05-20T02:33:52.170Z,25.80
2019-05-20T02:36:20.323Z,26.40
2019-05-20T02:38:49.962Z,25.80
2019-05-20T02:41:21.352Z,25.00
2019-05-20T02:43:50.948Z,29.00
2019-05-20T02:46:20.683Z,24.80
2019-05-20T02:48:51.515Z,26.20
2019-05-20T02:51:31.491Z,23.80
2019-05-20T02:54:02.221Z,25.80
2019-05-20T02:56:33.344Z,25.00
2019-05-20T02:59:04.613Z,27.00
2019-05-20T03:01:36.697Z,28.80
2019-05-20T03:04:12.066Z,28.40
2019-05-20T03:06:38.167Z,28.60
2019-05-20T03:09:11.905Z,29.20
2019-05-20T03:11:40.819Z,19.40
2019-05-20T03:14:12.251Z,30.00
2019-05-20T03:16:42.970Z,32.60
2019-05-20T03:19:12.495Z,26.80
2019-05-20T03:21:44.869Z,28.80
2019-05-20T03:24:14.367Z,28.40
2019-05-20T03:26:46.552Z,30.40
2019-05-20T03:29:16.248Z,29.60
2019-05-20T03:31:45.846Z,21.20
2019-05-20T03:34:41.985Z,26.00
2019-05-20T03:36:47.937Z,30.20
2019-05-20T03:39:17.655Z,30.00
2019-05-20T03:41:47.561Z,32.60
2019-05-20T03:44:17.566Z,30.00
2019-05-20T03:46:47.250Z,20.20
2019-05-20T03:49:16.788Z,30.20
2019-05-20T03:51:46.710Z,30.00
2019-05-20T03:54:17.422Z,33.00
2019-05-20T03:56:47.335Z,32.00
2019-05-20T03:59:16.965Z,27.40
2019-05-20T04:01:46.599Z,29.20
2019-05-20T04:04:17.399Z,25.20
2019-05-20T04:06:47.520Z,30.00
2019-05-20T04:09:17.196Z,30.40
2019-05-20T04:11:47.649Z,24.60
2019-05-20T04:14:17.253Z,23.80
2019-05-20T04:16:46.967Z,25.00
2019-05-20T04:19:18.483Z,27.80
2019-05-20T04:21:48.007Z,27.40
2019-05-20T04:24:17.529Z,26.80
2019-05-20T04:26:50.719Z,18.20
2019-05-20T04:29:22.765Z,20.40
2019-05-20T04:31:52.269Z,31.60
2019-05-20T04:34:22.539Z,27.60
2019-05-20T04:36:53.054Z,27.00
2019-05-20T04:39:25.396Z,30.00
2019-05-20T04:41:55.101Z,23.40
2019-05-20T04:44:24.726Z,27.20
2019-05-20T04:46:58.053Z,22.60
2019-05-20T04:49:27.632Z,24.80
2019-05-20T04:51:57.250Z,26.20
2019-05-20T04:54:30.822Z,20.00
2019-05-20T04:57:02.588Z,22.60
2019-05-20T04:59:34.144Z,21.80
2019-05-20T05:02:07.277Z,23.40
2019-05-20T05:04:36.793Z,21.00
2019-05-20T05:07:06.338Z,23.20
2019-05-20T05:09:36.137Z,22.80
2019-05-20T05:12:05.960Z,25.00
2019-05-20T05:14:35.935Z,27.00
2019-05-20T05:17:08.176Z,20.40
2019-05-20T05:19:40.384Z,15.60
2019-05-20T05:22:10.271Z,15.00
2019-05-20T05:24:39.772Z,22.80
2019-05-20T05:27:09.204Z,19.80
2019-05-20T05:29:38.977Z,22.40
2019-05-20T05:32:08.608Z,23.00
2019-05-20T05:34:38.094Z,16.80
2019-05-20T05:37:09.596Z,24.40
2019-05-20T05:39:40.437Z,21.60
2019-05-20T05:42:10.071Z,23.20
2019-05-20T05:44:40.807Z,24.60
2019-05-20T05:47:14.061Z,21.00
2019-05-20T05:49:43.542Z,20.20
2019-05-20T05:52:13.583Z,19.80
2019-05-20T05:54:43.413Z,20.80
2019-05-20T05:57:15.059Z,18.00
2019-05-20T05:59:44.661Z,22.00
2019-05-20T06:02:14.687Z,23.40
2019-05-20T06:04:44.401Z,22.40
2019-05-20T06:07:14.237Z,24.20
2019-05-20T06:09:43.821Z,24.60
2019-05-20T06:12:13.400Z,15.40
2019-05-20T06:14:42.993Z,20.80
2019-05-20T06:17:12.618Z,23.60
2019-05-20T06:19:42.397Z,21.00
2019-05-20T06:22:14.480Z,22.40
2019-05-20T06:24:43.066Z,21.20
2019-05-20T06:27:13.717Z,19.00
2019-05-20T06:29:44.441Z,15.20
2019-05-20T06:32:14.600Z,18.80
2019-05-20T06:34:44.373Z,9.60
2019-05-20T06:37:15.923Z,4.40
2019-05-20T06:39:45.524Z,18.40
2019-05-20T06:42:15.484Z,21.00
2019-05-20T06:44:52.542Z,18.40
2019-05-20T06:47:16.367Z,15.40
2019-05-20T06:49:46.033Z,15.40
2019-05-20T06:52:15.495Z,17.80
2019-05-20T06:54:45.089Z,19.00
2019-05-20T06:57:15.262Z,18.20
2019-05-20T06:59:46.721Z,19.20
2019-05-20T07:02:16.116Z,17.60
2019-05-20T07:04:45.533Z,19.80
2019-05-20T07:07:21.357Z,21.00
2019-05-20T07:09:51.889Z,21.60
2019-05-20T07:12:21.381Z,23.80
2019-05-20T07:14:51.743Z,23.20
2019-05-20T07:17:21.150Z,20.80
2019-05-20T07:19:50.933Z,23.20
2019-05-20T07:22:20.385Z,13.40
2019-05-20T07:24:50.331Z,22.20
2019-05-20T07:27:19.902Z,22.00
2019-05-20T07:29:49.319Z,21.80
2019-05-20T07:32:19.017Z,22.20
2019-05-20T07:34:50.024Z,25.00
2019-05-20T07:37:26.155Z,26.20
2019-05-20T07:39:55.735Z,23.20
2019-05-20T07:42:25.382Z,28.40
2019-05-20T07:44:56.698Z,23.80
2019-05-20T07:47:29.580Z,30.00
2019-05-20T07:50:00.735Z,27.20
2019-05-20T07:52:30.280Z,23.60
2019-05-20T07:54:59.868Z,19.80
2019-05-20T07:57:32.420Z,26.00
2019-05-20T08:00:02.095Z,30.00
2019-05-20T08:02:31.722Z,26.20
2019-05-20T08:05:02.918Z,16.40
2019-05-20T08:07:50.734Z,26.20
2019-05-20T08:10:06.782Z,26.80
2019-05-20T08:12:37.215Z,27.20
2019-05-20T08:15:10.297Z,21.80
2019-05-20T08:17:40.220Z,24.60
2019-05-20T08:20:09.788Z,30.00
2019-05-20T08:22:42.540Z,19.40
2019-05-20T08:25:15.886Z,31.80
2019-05-20T08:27:45.553Z,21.60
2019-05-20T08:30:15.029Z,28.40
2019-05-20T08:32:44.593Z,21.00
2019-05-20T08:35:13.979Z,25.40
2019-05-20T08:37:45.846Z,28.60
2019-05-20T08:40:15.277Z,27.00
2019-05-20T08:42:44.985Z,22.40
2019-05-20T08:45:14.666Z,17.60
2019-05-20T08:47:44.170Z,28.00
2019-05-20T08:50:16.363Z,29.20
2019-05-20T08:52:45.319Z,30.80
2019-05-20T08:55:15.144Z,25.80
2019-05-20T08:57:44.813Z,29.60
2019-05-20T09:00:23.747Z,25.20
2019-05-20T09:02:53.831Z,31.60
2019-05-20T09:05:27.949Z,24.00
2019-05-20T09:08:03.187Z,31.40
2019-05-20T09:10:28.417Z,30.60
2019-05-20T09:12:58.148Z,31.20
2019-05-20T09:15:28.101Z,29.60
2019-05-20T09:17:57.725Z,32.60
2019-05-20T09:20:28.409Z,30.20
2019-05-20T09:23:02.630Z,29.00
2019-05-20T09:25:31.773Z,28.00
2019-05-20T09:28:01.739Z,28.80
2019-05-20T09:30:31.237Z,33.40
2019-05-20T09:33:02.739Z,31.00
2019-05-20T09:35:32.122Z,31.60
2019-05-20T09:38:17.261Z,30.40
2019-05-20T09:40:38.398Z,25.60
2019-05-20T09:43:07.946Z,32.80
2019-05-20T09:45:37.429Z,29.40
2019-05-20T09:48:15.172Z,30.60
2019-05-20T09:50:45.387Z,30.60
2019-05-20T09:53:15.341Z,32.20
2019-05-20T09:55:46.012Z,29.20
2019-05-20T09:58:15.791Z,24.20
2019-05-20T10:00:49.282Z,27.20
2019-05-20T10:03:25.632Z,31.80
2019-05-20T10:05:55.415Z,34.80
2019-05-20T10:08:37.678Z,33.20
2019-05-20T10:10:59.688Z,22.60
2019-05-20T10:13:29.838Z,31.00
2019-05-20T10:18:35.965Z,30.00
2019-05-20T10:20:53.801Z,33.40
2019-05-20T10:23:45.647Z,30.00
2019-05-20T10:26:16.212Z,25.00
2019-05-20T10:28:47.533Z,22.00
2019-05-20T10:31:17.473Z,30.00
2019-05-20T10:33:47.443Z,33.00
2019-05-20T10:36:17.859Z,29.20
2019-05-20T10:38:58.506Z,31.20
2019-05-20T10:41:18.979Z,26.60
2019-05-20T10:43:48.423Z,33.40
2019-05-20T10:46:19.014Z,28.80
2019-05-20T10:48:48.470Z,33.40
2019-05-20T10:51:17.985Z,32.20
2019-05-20T10:53:48.394Z,34.00
2019-05-20T10:56:18.213Z,31.20
2019-05-20T10:58:54.153Z,32.60
2019-05-20T11:01:26.152Z,30.40
2019-05-20T11:03:55.970Z,30.40
2019-05-20T11:06:25.773Z,31.40
2019-05-20T11:09:13.787Z,33.00
2019-05-20T11:11:33.425Z,33.40
2019-05-20T11:14:03.819Z,19.60
2019-05-20T11:16:36.150Z,23.80
2019-05-20T11:19:09.638Z,22.40
2019-05-20T11:21:42.622Z,33.00
2019-05-20T11:24:12.407Z,33.40
2019-05-20T11:26:42.053Z,32.20
2019-05-20T11:29:13.989Z,33.00
2019-05-20T11:31:48.010Z,25.00
2019-05-20T11:34:20.570Z,31.80
2019-05-20T11:36:51.666Z,33.60
2019-05-20T11:39:33.235Z,30.60
2019-05-20T11:41:57.009Z,28.00
2019-05-20T11:44:27.306Z,32.20
2019-05-20T11:46:57.339Z,33.00
2019-05-20T11:49:29.294Z,29.80
2019-05-20T11:52:00.269Z,30.00
2019-05-20T11:54:31.215Z,31.80
2019-05-20T11:57:01.044Z,34.40
2019-05-20T11:59:31.669Z,32.60
2019-05-20T12:02:03.859Z,28.00
2019-05-20T12:04:32.374Z,32.20
2019-05-20T12:07:02.194Z,33.00
2019-05-20T12:09:48.148Z,26.20
2019-05-20T12:12:05.210Z,29.40
2019-05-20T12:14:34.842Z,34.00
2019-05-20T12:17:04.487Z,27.60
2019-05-20T12:19:33.999Z,33.60
2019-05-20T12:22:04.770Z,27.40
2019-05-20T12:24:34.326Z,31.40
2019-05-20T12:27:03.956Z,31.80
2019-05-20T12:29:33.719Z,29.60
2019-05-20T12:32:03.861Z,34.00
2019-05-20T12:34:34.105Z,32.20
2019-05-20T12:37:04.128Z,30.40
2019-05-20T12:42:02.084Z,30.80
2019-05-20T12:44:32.010Z,33.00
2019-05-20T12:47:01.833Z,27.40
2019-05-20T12:49:31.648Z,33.40
2019-05-20T12:52:02.150Z,32.60
2019-05-20T12:54:36.456Z,25.80
2019-05-20T12:57:06.277Z,31.80
2019-05-20T12:59:35.733Z,31.80
2019-05-20T13:02:06.700Z,32.60
2019-05-20T13:04:38.465Z,28.60
2019-05-20T13:07:09.157Z,28.20
2019-05-20T13:09:39.354Z,27.40
2019-05-20T13:12:09.204Z,22.40
2019-05-20T13:14:39.373Z,33.00
2019-05-20T13:17:13.080Z,31.80
2019-05-20T13:19:53.937Z,29.20
2019-05-20T13:22:24.544Z,30.80
2019-05-20T13:24:55.153Z,24.20
2019-05-20T13:27:24.752Z,33.00
2019-05-20T13:29:54.512Z,30.20
2019-05-20T13:32:24.074Z,30.40
2019-05-20T13:34:54.235Z,32.60
2019-05-20T13:37:23.870Z,32.60
2019-05-20T13:39:57.398Z,30.00
2019-05-20T13:42:26.936Z,26.20
2019-05-20T13:44:56.925Z,30.40
2019-05-20T13:47:28.442Z,28.00
2019-05-20T13:49:59.513Z,25.00
2019-05-20T13:52:28.953Z,31.20
2019-05-20T13:54:58.663Z,26.60
2019-05-20T13:57:28.154Z,27.00
2019-05-20T13:59:58.035Z,30.00
2019-05-20T14:02:27.709Z,31.20
2019-05-20T14:04:57.537Z,32.60
2019-05-20T14:07:27.124Z,32.80
2019-05-20T14:09:56.675Z,35.20
2019-05-20T14:12:29.115Z,33.00
2019-05-20T14:14:58.839Z,32.20
2019-05-20T14:17:28.944Z,33.60
2019-05-20T14:19:59.243Z,30.20
2019-05-20T14:22:28.914Z,34.80
2019-05-20T14:24:58.383Z,30.00
2019-05-20T14:27:28.252Z,33.00
2019-05-20T14:30:02.904Z,27.60
2019-05-20T14:32:32.780Z,26.60
2019-05-20T14:35:05.954Z,33.20
2019-05-20T14:37:35.380Z,33.80
2019-05-20T14:40:05.128Z,32.20
2019-05-20T14:42:35.208Z,35.40
2019-05-20T14:45:05.296Z,33.40
2019-05-20T14:47:35.072Z,33.40
2019-05-20T14:50:09.460Z,33.40
2019-05-20T14:52:38.892Z,23.20
2019-05-20T14:55:11.475Z,31.00
2019-05-20T14:57:41.606Z,31.80
2019-05-20T15:00:14.374Z,25.80
2019-05-20T15:02:44.441Z,25.00
2019-05-20T15:05:14.272Z,28.20
2019-05-20T15:07:44.321Z,33.00
2019-05-20T15:10:17.078Z,24.00
2019-05-20T15:12:46.951Z,29.60
2019-05-20T15:15:16.442Z,29.60
2019-05-20T15:17:48.627Z,32.20
2019-05-20T15:20:19.415Z,31.80
2019-05-20T15:22:52.691Z,33.00
2019-05-20T15:25:23.947Z,29.80
2019-05-20T15:27:53.438Z,28.20
2019-05-20T15:30:23.389Z,27.40
2019-05-20T15:32:54.852Z,27.00
2019-05-20T15:35:23.992Z,30.40
2019-05-20T15:37:58.798Z,33.40
2019-05-20T15:40:28.220Z,24.20
2019-05-20T15:42:58.366Z,26.20
2019-05-20T15:45:28.092Z,33.20
2019-05-20T15:47:57.757Z,30.80
2019-05-20T15:50:28.085Z,25.40
2019-05-20T15:52:58.103Z,27.00
2019-05-20T15:55:30.263Z,32.00
2019-05-20T15:58:00.423Z,25.80
2019-05-20T16:00:32.018Z,26.60
2019-05-20T16:03:02.663Z,32.20
2019-05-20T16:05:32.409Z,33.80
2019-05-20T16:08:02.089Z,32.60
2019-05-20T16:10:32.476Z,30.20
2019-05-20T16:13:02.249Z,23.00
2019-05-20T16:15:32.385Z,28.40
2019-05-20T16:18:01.916Z,32.60
2019-05-20T16:20:31.998Z,30.80
2019-05-20T16:23:03.140Z,31.40
2019-05-20T16:25:34.314Z,30.80
2019-05-20T16:28:06.051Z,31.80
2019-05-20T16:30:35.655Z,30.00
2019-05-20T16:33:06.573Z,30.00
2019-05-20T16:35:36.474Z,30.20
2019-05-20T16:38:06.294Z,27.60
2019-05-20T16:40:39.024Z,26.60
2019-05-20T16:43:11.957Z,19.40
2019-05-20T16:45:41.625Z,30.80
2019-05-20T16:48:15.855Z,22.40
2019-05-20T16:50:45.227Z,24.60
2019-05-20T16:53:15.710Z,30.00
2019-05-20T16:55:51.407Z,24.20
2019-05-20T16:58:21.077Z,32.20
2019-05-20T17:00:50.660Z,31.40
2019-05-20T17:03:20.251Z,33.00
2019-05-20T17:05:54.240Z,33.80
2019-05-20T17:08:25.329Z,31.20
2019-05-20T17:10:55.275Z,30.00
2019-05-20T17:13:26.363Z,28.40
2019-05-20T17:15:59.230Z,33.40
2019-05-20T17:18:30.708Z,35.20
2019-05-20T17:21:03.289Z,34.00
2019-05-20T17:23:37.608Z,29.40
2019-05-20T17:26:14.500Z,28.20
2019-05-20T17:28:44.448Z,30.60
2019-05-20T17:31:14.541Z,30.00
2019-05-20T17:33:44.131Z,29.20
2019-05-20T17:36:13.741Z,24.00
2019-05-20T17:38:43.961Z,24.00
2019-05-20T17:41:15.623Z,31.40
2019-05-20T17:43:51.080Z,30.40
2019-05-20T17:46:27.208Z,30.80
2019-05-20T17:48:57.086Z,31.80
2019-05-20T17:51:29.760Z,25.00
2019-05-20T17:54:06.721Z,31.20
2019-05-20T17:56:40.136Z,32.80
2019-05-20T17:59:09.895Z,33.40
2019-05-20T18:01:42.730Z,32.00
2019-05-20T18:04:14.783Z,32.20
2019-05-20T18:06:44.632Z,30.00
2019-05-20T18:09:14.273Z,31.80
2019-05-20T18:11:45.431Z,30.20
2019-05-20T18:14:16.201Z,34.20
2019-05-20T18:16:45.880Z,33.00
2019-05-20T18:19:15.302Z,33.60
2019-05-20T18:21:45.060Z,28.00
2019-05-20T18:24:15.482Z,31.40
2019-05-20T18:26:50.630Z,28.20
2019-05-20T18:29:20.027Z,32.00
2019-05-20T18:31:51.755Z,28.80
2019-05-20T18:34:34.769Z,27.40
2019-05-20T18:37:04.235Z,33.40
2019-05-20T18:39:35.526Z,31.40
2019-05-20T18:42:08.660Z,33.00
2019-05-20T18:44:38.227Z,30.60
2019-05-20T18:47:10.215Z,31.00
2019-05-20T18:49:44.487Z,32.20
2019-05-20T18:52:16.230Z,20.80
2019-05-20T18:54:45.864Z,30.00
2019-05-20T18:57:15.654Z,33.60
2019-05-20T18:59:48.281Z,30.40
2019-05-20T19:02:18.513Z,33.00
2019-05-20T19:04:47.947Z,28.00
2019-05-20T19:07:17.401Z,28.00
2019-05-20T19:09:47.471Z,31.80
2019-05-20T19:12:18.477Z,33.60
2019-05-20T19:14:51.492Z,34.20
2019-05-20T19:17:21.455Z,33.00
2019-05-20T19:19:55.944Z,33.00
2019-05-20T19:22:28.375Z,26.20
2019-05-20T19:25:07.401Z,33.00
2019-05-20T19:27:37.502Z,33.00
2019-05-20T19:30:08.046Z,30.40
2019-05-20T19:32:39.558Z,25.80
2019-05-20T19:35:09.356Z,32.40
2019-05-20T19:37:39.187Z,24.00
2019-05-20T19:40:09.317Z,30.00
2019-05-20T19:42:42.421Z,27.00
2019-05-20T19:45:12.408Z,23.40
2019-05-20T19:47:42.409Z,30.60
2019-05-20T19:50:14.763Z,29.60
2019-05-20T19:52:44.675Z,26.20
2019-05-20T19:55:19.065Z,29.20
2019-05-20T19:57:48.618Z,30.40
2019-05-20T20:00:19.987Z,30.40
2019-05-20T20:02:49.570Z,26.80
2019-05-20T20:05:23.844Z,28.20
2019-05-20T20:07:53.416Z,17.20
2019-05-20T20:10:23.164Z,30.40
2019-05-20T20:12:56.331Z,30.00
2019-05-20T20:15:26.478Z,23.40
2019-05-20T20:17:58.861Z,30.40
2019-05-20T20:20:28.977Z,32.20
2019-05-20T20:22:58.554Z,32.60
2019-05-20T20:25:36.533Z,29.20
2019-05-20T20:28:07.789Z,30.40
2019-05-20T20:30:37.371Z,33.40
2019-05-20T20:33:07.292Z,34.00
2019-05-20T20:35:43.001Z,35.20
2019-05-20T20:38:10.158Z,34.00
2019-05-20T20:40:43.394Z,31.00
2019-05-20T20:43:16.431Z,32.20
2019-05-20T20:45:46.414Z,20.80
2019-05-20T20:48:16.825Z,32.60
2019-05-20T20:50:47.593Z,34.20
2019-05-20T20:53:18.917Z,33.20
2019-05-20T20:55:51.795Z,30.80
2019-05-20T20:58:22.232Z,33.00
2019-05-20T21:00:54.574Z,33.40
2019-05-20T21:03:29.901Z,32.60
2019-05-20T21:06:02.033Z,33.00
2019-05-20T21:08:33.673Z,31.00
2019-05-20T21:11:03.710Z,33.00
2019-05-20T21:13:40.254Z,33.40
2019-05-20T21:16:11.330Z,35.80
2019-05-20T21:18:41.966Z,36.00
2019-05-20T21:21:12.209Z,32.00
2019-05-20T21:23:41.642Z,33.00
2019-05-20T21:26:14.286Z,37.80
2019-05-20T21:28:44.946Z,35.20
2019-05-20T21:31:14.639Z,34.20
2019-05-20T21:33:44.164Z,33.40
2019-05-20T21:36:14.407Z,30.60
2019-05-20T21:38:44.397Z,36.00
2019-05-20T21:41:14.380Z,23.20
2019-05-20T21:43:46.957Z,36.60
2019-05-20T21:46:16.381Z,36.60
2019-05-20T21:48:46.102Z,33.00
2019-05-20T21:51:16.026Z,31.00
2019-05-20T21:53:49.085Z,31.60
2019-05-20T21:56:21.453Z,36.00
2019-05-20T21:58:51.178Z,33.20
2019-05-20T22:01:24.766Z,23.80
2019-05-20T22:03:57.268Z,30.20
2019-05-20T22:06:30.168Z,33.00
2019-05-20T22:08:59.919Z,36.20
2019-05-20T22:11:29.878Z,31.20
2019-05-20T22:14:00.015Z,21.80
2019-05-20T22:16:29.982Z,30.40
2019-05-20T22:18:59.574Z,29.20
2019-05-20T22:21:34.075Z,32.20
2019-05-20T22:24:06.843Z,25.80
2019-05-20T22:26:36.378Z,28.20
2019-05-20T22:29:13.610Z,30.20
2019-05-20T22:31:43.199Z,30.00
2019-05-20T22:34:12.677Z,30.00
2019-05-20T22:36:42.803Z,32.00
2019-05-20T22:39:12.433Z,27.60
2019-05-20T22:41:45.041Z,29.80
2019-05-20T22:44:14.674Z,27.20
2019-05-20T22:46:44.803Z,28.00
2019-05-20T22:49:14.366Z,21.60
2019-05-20T22:51:45.653Z,29.00
2019-05-20T22:54:15.361Z,18.80
2019-05-20T22:56:45.068Z,30.00
2019-05-20T22:59:14.915Z,31.40
2019-05-20T23:04:26.748Z,32.60
2019-05-20T23:06:56.429Z,30.20
2019-05-20T23:09:26.237Z,30.00
2019-05-20T23:11:58.070Z,24.40
2019-05-20T23:14:27.842Z,25.00
2019-05-20T23:16:57.535Z,23.60
2019-05-20T23:19:29.906Z,24.60
2019-05-20T23:22:00.489Z,27.80
2019-05-20T23:24:30.445Z,24.20
2019-05-20T23:27:00.636Z,22.80
2019-05-20T23:29:30.403Z,16.20
2019-05-20T23:32:00.163Z,20.20
2019-05-20T23:34:30.026Z,24.40
2019-05-20T23:37:00.186Z,26.60
2019-05-20T23:39:30.028Z,29.80
2019-05-20T23:41:59.854Z,22.80
2019-05-20T23:44:29.413Z,27.80
2019-05-20T23:47:00.165Z,27.20
2019-05-20T23:49:32.014Z,26.00
2019-05-20T23:52:02.537Z,23.80
2019-05-20T23:54:37.044Z,21.20
2019-05-20T23:57:07.167Z,19.60
2019-05-20T23:59:36.882Z,18.80
